Relevés horaires Bouveret (Suisse)


Relevés horaires à Bouveret - Jeudi 22 Mars 2018
Heure UTC1 Température [°C] Vent [km/h] Hum. [%] Pres.4 [hPa] Visi. [Km] Nébu. [octa] Préc.5 [mm] Cond.
2m. Res. Ros. Dir.2 Vit. Moy. Raf.3
23:00 2.9 0.8 -0.7 ESE 7.4 -- 14.8 77 1017.3(-0.9/3h) -- -- -- --
22:00 4.0 2.7 -1.2 NNE 5.6 -- 31.5 69 1017.8(-0.3/3h) -- -- -- --
21:00 4.9 0.9 -1.8 NO 20.4 -- 35.2 62 1018(0.2/3h) -- -- -- --
20:00 5.2 1.3 -1.4 ONO 20.4 -- 27.8 62 1017.8(0.1/3h) -- -- -- --
19:00 5.4 2 -2.0 ONO 16.7 -- 35.2 59 1017.9(0.0/3h) -- -- -- --
18:00 6.1 2.6 -2.5 NO 18.5 -- 35.2 54 1017.6(-0.5/3h) -- -- -- --
17:00 7.1 5.3 -5.9 ONO 9.3 -- 24.1 39 1017.4(-1.1/3h) -- -- -- --
16:00 7.3 4.9 -10.0 O 13.0 -- 20.4 28 1017.6(-1.9/3h) -- -- -- --
15:00 6.9 3.9 -6.7 O 16.7 -- 20.4 37 1017.9(-2.2/3h) -- -- -- --
14:00 6.7 3.6 -8.1 O 16.7 -- 20.4 34 1018.6(-2.7/3h) -- -- -- --
13:00 5.9 2.9 -5.8 ONO 14.8 -- 20.4 43 1019.8(-2.6/3h) -- -- -- --
12:00 5.3 1.9 -6.5 O 16.7 -- 22.2 42 1020.5(-2.5/3h) -- -- -- --
11:00 3.6 0.4 -5.4 NO 13.0 -- 16.7 52 1022(-1.7/3h) -- -- -- --
10:00 1.9 -0.9 -5.0 O 9.3 -- 11.1 60 1023.2(-0.6/3h) -- -- -- --
09:00 1.3 1.3 -6.6 NNE 3.7 -- 9.3 56 1023.8(-0.1/3h) -- -- -- --
08:00 0.6 -1.2 -7.5 SE 5.6 -- 9.3 54 1024.3(-0.2/3h) -- -- -- --
07:00 -0.8 -2.8 -6.2 SE 5.6 -- 9.3 67 1024.3(-0.3/3h) -- -- -- --
06:00 -1.5 -3.6 -5.7 SSE 5.6 -- 16.7 73 1024.4(-0.3/3h) -- -- -- --
05:00 -1.2 -3.2 -5.3 SSE 5.6 -- 7.4 74 1024.8(-0.2/3h) -- -- -- --
04:00 -1.1 -3.1 -5.1 SSE 5.6 -- 9.3 74 1024.7(-0.8/3h) -- -- -- --
03:00 -0.7 -0.7 -5.8 ENE 1.9 -- 16.7 68 1024.6(-1.1/3h) -- -- -- --
02:00 -0.4 -2.3 -5.7 SE 5.6 -- 16.7 67 1024.9(-0.9/3h) -- -- -- --
01:00 0.2 -2.3 -5.8 SE 7.4 -- 14.8 64 1025.3(-0.5/3h) -- -- -- --
00:00 0.2 -1.6 -5.8 SE 5.6 -- 33.3 64 1025.6(-0.3/3h) -- -- -- --

1 Coordinated Universal Time. Actuellement il est 07:00 locale et 05:00 UTC.

2 Le vent souffle depuis la direction indiquée vers la direction oposée.

3 Les rafales max. sont disponible 40 min après l'heure du relevé.

4 Pour les stations d'altitude (plus de 600m) le géopotentiel du niveau le plus proche de la pression obligatoire est indiqué.

5 Les stations disposant d'un diffuseur peuvent indiquer "trace". Cela signifie que des précipitations ont touchés le sol mais que la quantité est inférieure à 0.1 mm.

Copyright

Les données affichées sur cette page sont la propriété exclusive de Météo Suisse.

Récapitulatif de la journée
Température [°C] Vent [km/h] Ensoleillement4 [h] Precipitations totale5 [mm] Pression [Hpa]
Min1 Max.2 Moy.3 Max. Min Max.
-1.5 7.4 0 35.2 0 h 0 min 0 1017.3 1025.6

1 Température minimale relevée entre 18:00 UTC la veille et 18:00 UTC le jour donné.

2 Température maximale relevée entre 06:00 UTC le jour donné et 06:00 UTC le lendemain.

3 Vent moyen de la journée basé sur les relevés horaires.

4 Ensoleillement en heures relevé entre 06:00 UTC la veille et 06:00 UTC le jour donné.

5 Précipitations totales tombées entre 06:00 UTC la jour donné et 06:00 UTC le lendemain.

Graphiques horaires